Flight Track Log - Related Links

Times and Time Zones

All times are in EDT time to prevent confusion due to time zone crossing. See the CCA4393 flight status page for this flight to view local times or setup timezone preferences in your user account.

Time Position Orientation Groundspeed Altitude Reporting Facility
EDT Latitude Longitude Course Direction KTS MPH feet Rate Location/Type
Thu 08:10:00 PM 32.3018 104.3207 136° Southeast  Level Estimated
Thu 08:11:00 PM 32.2222 104.4112 136° Southeast  Level Estimated
Thu 08:12:00 PM 32.1426 104.5015 136° Southeast  Level Estimated
Thu 08:13:00 PM 32.0629 104.5917 136° Southeast  Level Estimated
Thu 08:14:00 PM 31.9831 104.6816 136° Southeast  Level Estimated
Thu 08:15:00 PM 31.9033 104.7715 136° Southeast  Level Estimated
Thu 08:15:30 PM 32.7720 104.2430 136° Southeast 473 544 27,600  Level FlightAware ADS-B
Thu 08:15:42 PM 32.7510 104.2650 139° Southeast 471 542 27,800 1,071 Climbing FlightAware ADS-B
Thu 08:15:58 PM 32.7190 104.2860 151° Southeast 469 540 28,100 938 Climbing FlightAware ADS-B
Thu 08:16:14 PM 32.6860 104.2970 164° South 469 540 28,300 1,154 Climbing FlightAware ADS-B
Thu 08:16:50 PM 32.6090 104.2890 185° South 459 528 29,100 706 Climbing FlightAware ADS-B
Thu 08:17:22 PM 32.5450 104.2700 194° South 464 534 29,100  Level FlightAware ADS-B
Thu 08:17:58 PM 32.4660 104.2540 190° South 467 537 29,100 750 Level FlightAware ADS-B
Thu 08:18:34 PM 32.3890 104.2570 178° South 468 539 30,000 1,500 Climbing FlightAware ADS-B
Thu 08:19:06 PM 32.3190 104.2620 177° South 468 539 30,800 1,543 Climbing FlightAware ADS-B
Thu 08:19:44 PM 32.2360 104.2660 178° South 467 537 31,800 1,629 Climbing FlightAware ADS-B
Thu 08:20:16 PM 32.1680 104.2700 177° South 467 537 32,700 1,114 Climbing FlightAware ADS-B
Thu 08:20:54 PM 32.0860 104.2740 178° South 460 529 33,100 353 Climbing FlightAware ADS-B
Thu 08:21:24 PM 32.0220 104.2770 178° South 461 531 33,100  Level FlightAware ADS-B
Thu 08:22:04 PM 31.9360 104.2820 177° South 464 534 33,100  Level FlightAware ADS-B
Thu 08:22:37 PM 31.8670 104.2860 177° South 466 536 33,100  Level FlightAware ADS-B
Thu 08:23:14 PM 31.7860 104.2900 178° South 464 534 33,100  Level FlightAware ADS-B
Thu 08:23:50 PM 31.7080 104.2940 178° South 464 534 33,100  Level FlightAware ADS-B
Thu 08:24:23 PM 31.6390 104.2970 178° South 465 535 33,100  Level FlightAware ADS-B
Thu 08:24:57 PM 31.5650 104.3010 177° South 466 536 33,100  Level FlightAware ADS-B
Thu 08:25:34 PM 31.4840 104.3050 178° South 468 539 33,100  Level FlightAware ADS-B
Thu 08:26:10 PM 31.4060 104.3090 177° South 470 541 33,100  Level FlightAware ADS-B
Thu 08:26:41 PM 31.3410 104.3120 178° South 470 541 33,100  Level FlightAware ADS-B
Thu 08:27:18 PM 31.2570 104.3150 178° South 470 541 33,100  Level FlightAware ADS-B
Thu 08:27:52 PM 31.1840 104.3180 178° South 470 541 33,100  Level FlightAware ADS-B
Thu 08:28:30 PM 31.1020 104.3220 178° South 471 542 33,100  Level FlightAware ADS-B
Thu 08:29:02 PM 31.0310 104.3250 178° South 471 542 33,100  Level FlightAware ADS-B
Thu 08:29:38 PM 30.9510 104.3280 178° South 472 543 33,100  Level FlightAware ADS-B
Thu 08:30:14 PM 30.8740 104.3370 174° South 474 545 33,100  Level FlightAware ADS-B
Thu 08:30:46 PM 30.8040 104.3550 168° South 476 548 33,100  Level FlightAware ADS-B
Thu 08:31:24 PM 30.7260 104.3850 162° South 476 548 33,100  Level FlightAware ADS-B
Thu 08:31:58 PM 30.6530 104.4130 162° South 476 548 33,100  Level FlightAware ADS-B
Thu 08:32:33 PM 30.5840 104.4390 162° South 475 547 33,100  Level FlightAware ADS-B
Thu 08:33:09 PM 30.5060 104.4690 162° South 474 545 33,100  Level FlightAware ADS-B
Thu 08:33:40 PM 30.4400 104.4940 162° South 474 545 33,100  Level FlightAware ADS-B
Thu 08:34:17 PM 30.3630 104.5230 162° South 474 545 33,100  Level FlightAware ADS-B
Thu 08:34:53 PM 30.2890 104.5510 162° South 474 545 33,100  Level FlightAware ADS-B
Thu 08:35:25 PM 30.2210 104.5770 162° South 474 545 33,100  Level FlightAware ADS-B
Thu 08:35:57 PM 30.1550 104.6020 162° South 474 545 33,100  Level FlightAware ADS-B
Thu 08:36:33 PM 30.0790 104.6310 162° South 474 545 33,100  Level FlightAware ADS-B
Thu 08:37:05 PM 30.0120 104.6570 161° South 475 547 33,100  Level FlightAware ADS-B
Thu 08:37:42 PM 29.9360 104.6870 161° South 475 547 33,100  Level FlightAware ADS-B
Thu 08:38:35 PM 29.8340 104.7270 161° South 476 548 33,100  Level FlightAware ADS-B
Thu 08:39:12 PM 29.7690 104.7530 161° South 476 548 33,100  Level FlightAware ADS-B
Thu 08:39:48 PM 29.7050 104.7790 161° South 476 548 33,100  Level FlightAware ADS-B
Thu 08:40:25 PM 29.6390 104.8050 161° South 476 548 33,100  Level FlightAware ADS-B
Thu 08:41:01 PM 29.5760 104.8300 161° South 476 548 33,100  Level FlightAware ADS-B
Thu 08:41:37 PM 29.5120 104.8550 161° South 476 548 33,100  Level FlightAware ADS-B
Thu 08:42:13 PM 29.4480 104.8800 161° South 476 548 33,100  Level FlightAware ADS-B
Thu 08:42:50 PM 29.3830 104.9060 161° South 476 548 33,100  Level FlightAware ADS-B
Thu 08:43:26 PM 29.3190 104.9310 161° South 476 548 33,100  Level FlightAware ADS-B
Thu 08:44:03 PM 29.2530 104.9570 161° South 476 548 33,100  Level FlightAware ADS-B
Thu 08:44:39 PM 29.1900 104.9820 161° South 476 548 33,100  Level FlightAware ADS-B
Thu 08:45:15 PM 29.1260 105.0070 161° South 476 548 33,100  Level FlightAware ADS-B
Thu 08:46:07 PM 28.8790 105.0960 162° South 475 547 33,100  Level FlightAware ADS-B
Thu 08:46:49 PM 28.8010 105.1260 161° South 475 547 33,100  Level FlightAware ADS-B
Thu 08:47:21 PM 28.7330 105.1520 161° South 476 548 33,100  Level FlightAware ADS-B
Thu 08:48:05 PM 28.6410 105.1860 162° South 474 545 33,100  Level FlightAware ADS-B
Thu 08:48:41 PM 28.5780 105.2110 161° South 474 545 33,100  Level FlightAware ADS-B
Thu 08:49:17 PM 28.5150 105.2360 161° South 474 545 33,100  Level FlightAware ADS-B
Thu 08:49:53 PM 28.4510 105.2610 161° South 474 545 33,100  Level FlightAware ADS-B
Thu 08:50:29 PM 28.3880 105.2850 161° South 474 545 33,100  Level FlightAware ADS-B
Thu 08:51:05 PM 28.3240 105.3100 161° South 474 545 33,100  Level FlightAware ADS-B
Thu 08:51:41 PM 28.2610 105.3350 161° South 474 545 33,100  Level FlightAware ADS-B
Thu 08:52:18 PM 28.1960 105.3610 161° South 474 545 33,100  Level FlightAware ADS-B
Thu 08:52:54 PM 28.1320 105.3850 162° South 474 545 33,100  Level FlightAware ADS-B
Thu 08:53:30 PM 28.0690 105.4100 161° South 474 545 33,100  Level FlightAware ADS-B
Thu 08:54:06 PM 28.0050 105.4350 161° South 474 545 33,100  Level FlightAware ADS-B
Thu 08:54:43 PM 27.9400 105.4600 161° South 474 545 33,100  Level FlightAware ADS-B
Thu 08:55:19 PM 27.8770 105.4850 161° South 474 545 33,100  Level FlightAware ADS-B
Thu 08:55:55 PM 27.8130 105.5100 161° South 474 545 33,100  Level FlightAware ADS-B
Thu 08:56:31 PM 27.7500 105.5340 161° South 474 545 33,100  Level FlightAware ADS-B
Thu 08:57:07 PM 27.6860 105.5590 161° South 474 545 33,100  Level FlightAware ADS-B
Thu 08:59:00 PM 27.5823 105.7624 120° Southeast  Level Estimated
Thu 09:00:00 PM 27.5272 105.8702 120° Southeast  Level Estimated
Thu 09:01:00 PM 27.4719 105.9780 120° Southeast  Level Estimated
Thu 09:02:00 PM 27.4166 106.0856 120° Southeast  Level Estimated
Thu 09:03:00 PM 27.3612 106.1931 120° Southeast  Level Estimated
Thu 09:04:00 PM 27.3057 106.3005 120° Southeast  Level Estimated
Thu 09:05:00 PM 27.2501 106.4078 120° Southeast  Level Estimated
Thu 09:06:00 PM 27.1944 106.5150 120° Southeast  Level Estimated
Thu 09:07:00 PM 27.1387 106.6221 120° Southeast  Level Estimated
Thu 09:08:00 PM 27.0828 106.7290 120° Southeast  Level Estimated
Thu 09:09:00 PM 27.0269 106.8359 120° Southeast  Level Estimated
Thu 09:10:00 PM 26.9709 106.9427 120° Southeast  Level Estimated
Thu 09:11:00 PM 26.9149 107.0493 121° Southeast  Level Estimated
Thu 09:12:00 PM 26.8587 107.1559 121° Southeast  Level Estimated
Thu 09:13:00 PM 26.8025 107.2623 121° Southeast  Level Estimated
Thu 09:14:00 PM 26.7462 107.3687 121° Southeast  Level Estimated
Thu 09:15:00 PM 26.6898 107.4749 121° Southeast  Level Estimated
Thu 09:16:00 PM 26.6333 107.5810 121° Southeast  Level Estimated
Thu 09:17:00 PM 26.5768 107.6871 121° Southeast  Level Estimated
Thu 09:18:00 PM 26.5202 107.7930 121° Southeast  Level Estimated
Thu 09:19:00 PM 26.4635 107.8988 121° Southeast  Level Estimated
Thu 09:20:00 PM 26.4067 108.0045 121° Southeast  Level Estimated
Thu 09:21:00 PM 26.3498 108.1101 121° Southeast  Level Estimated
Thu 09:22:00 PM 26.2929 108.2156 121° Southeast  Level Estimated
Thu 09:23:00 PM 26.2359 108.3210 121° Southeast  Level Estimated
Thu 09:24:00 PM 26.1788 108.4263 121° Southeast  Level Estimated
Thu 09:25:00 PM 26.1217 108.5315 121° Southeast  Level Estimated
Thu 09:26:00 PM 26.0644 108.6366 121° Southeast  Level Estimated
Thu 09:27:00 PM 26.0071 108.7416 121° Southeast  Level Estimated
Thu 09:28:00 PM 25.9497 108.8465 121° Southeast  Level Estimated
Thu 09:29:00 PM 25.8922 108.9513 121° Southeast  Level Estimated
Thu 09:30:00 PM 25.8347 109.0560 121° Southeast  Level Estimated
Thu 09:31:00 PM 25.7771 109.1605 121° Southeast  Level Estimated
Thu 09:32:00 PM 25.7194 109.2650 121° Southeast  Level Estimated
Thu 09:33:00 PM 25.6616 109.3694 122° Southeast  Level Estimated
Thu 09:34:00 PM 25.6038 109.4737 122° Southeast  Level Estimated
Thu 09:35:00 PM 25.5459 109.5779 122° Southeast  Level Estimated
Thu 09:36:00 PM 25.4879 109.6819 122° Southeast  Level Estimated
Thu 09:37:00 PM 25.4298 109.7859 122° Southeast  Level Estimated
Thu 09:38:00 PM 25.3717 109.8898 122° Southeast  Level Estimated
Thu 09:39:00 PM 25.3135 109.9935 122° Southeast  Level Estimated
Thu 09:40:00 PM 25.2552 110.0972 122° Southeast  Level Estimated
Thu 09:40:53 PM 24.6550 110.7160 122° Southeast 465 535 33,100  Level FlightAware ADS-B
Thu 09:41:00 PM 25.1968 110.2008 122° Southeast  Level Estimated
Thu 09:41:32 PM 24.6020 110.7720 136° Southeast 466 536 33,100  Level FlightAware ADS-B
Thu 09:42:08 PM 24.5540 110.8230 136° Southeast 466 536 33,100 81 Level FlightAware ADS-B
Thu 09:42:46 PM 24.4840 110.9000 135° Southeast 466 536 33,200  Climbing FlightAware ADS-B
Thu 09:43:34 PM 24.4070 110.9820 136° Southeast 463 533 33,100 -76 Descending FlightAware ADS-B
Thu 09:44:05 PM 24.3620 111.0310 135° Southeast 462 532 33,100  Level FlightAware ADS-B
Thu 09:44:44 PM 24.3120 111.0860 135° Southeast 462 532 33,100  Level FlightAware ADS-B
Thu 09:45:20 PM 24.2500 111.1570 134° Southeast 457 526 33,100  Level FlightAware ADS-B
Thu 09:45:53 PM 24.2080 111.2060 133° Southeast 457 526 33,100  Level FlightAware ADS-B
Thu 09:46:32 PM 24.1440 111.2780 134° Southeast 456 525 33,100 -76 Level FlightAware ADS-B
Thu 09:47:12 PM 24.0870 111.3430 134° Southeast 459 528 33,000 -220 Descending FlightAware ADS-B
Thu 09:47:54 PM 24.0320 111.4070 133° Southeast 459 528 32,800 -701 Descending FlightAware ADS-B
Thu 09:48:29 PM 23.9710 111.4750 134° Southeast 463 533 32,100 -656 Descending FlightAware ADS-B
Thu 09:48:58 PM 23.9280 111.5230 134° Southeast 466 536 32,100  Level FlightAware ADS-B
Thu 09:49:42 PM 23.8690 111.5920 133° Southeast 465 535 32,100  Level FlightAware ADS-B
Thu 09:50:22 PM 23.8130 111.6560 134° Southeast 466 536 32,100 -2,514 Level FlightAware ADS-B
Thu 09:50:56 PM 23.7520 111.7230 135° Southeast 465 535 29,000 -4,286 Descending FlightAware ADS-B
Thu 09:51:32 PM 23.7000 111.7820 134° Southeast 462 532 27,100 -2,833 Descending FlightAware ADS-B
Thu 09:52:08 PM 23.6450 111.8440 134° Southeast 445 512 25,600 -2,206 Descending FlightAware ADS-B
Thu 09:52:40 PM 23.6010 111.8930 134° Southeast 425 489 24,600 -1,452 Descending FlightAware ADS-B
Thu 09:53:10 PM 23.5600 111.9390 134° Southeast 395 455 24,100 -1,583 Descending FlightAware ADS-B
Thu 09:53:52 PM 23.5100 111.9950 134° Southeast 384 442 22,700 -1,975 Descending FlightAware ADS-B
Thu 09:54:29 PM 23.4650 112.0450 134° Southeast 372 428 21,500 -2,143 Descending FlightAware ADS-B
Thu 09:55:02 PM 23.4240 112.0920 134° Southeast 369 425 20,200 -2,000 Descending FlightAware ADS-B
Thu 09:55:38 PM 23.3840 112.1370 134° Southeast 359 413 19,200 -2,028 Descending FlightAware ADS-B
Thu 09:56:13 PM 23.3400 112.1850 135° Southeast 359 413 17,800 -2,239 Descending FlightAware ADS-B
Thu 09:56:45 PM 23.3040 112.2260 134° Southeast 357 411 16,700 -1,308 Descending FlightAware ADS-B
Thu 09:57:31 PM 23.2570 112.2790 134° Southeast 355 409 16,100 -1,556 Descending FlightAware ADS-B
Thu 09:58:06 PM 23.2140 112.3270 134° Southeast 338 389 14,600 -2,000 Descending FlightAware ADS-B
Thu 09:58:37 PM 23.1800 112.3640 135° Southeast 337 388 13,900 -794 Descending FlightAware ADS-B
Thu 09:59:14 PM 23.1400 112.4090 134° Southeast 337 388 13,700 -973 Descending FlightAware ADS-B
Thu 09:59:51 PM 23.1000 112.4530 135° Southeast 331 381 12,700 -1,895 Descending FlightAware ADS-B
Thu 10:00:11 PM 23.0780 112.4800 132° Southeast 328 377 11,900 -2,357 Descending FlightAware ADS-B
Thu 10:00:19 PM 23.0730 112.4910 116° Southeast 328 377 11,600 -2,100 Descending FlightAware ADS-B
Thu 10:00:31 PM 23.0700 112.5100 100° East 321 369 11,200 -1,250 Descending FlightAware ADS-B
Thu 10:01:07 PM 23.0700 112.5650 90° East 300 345 10,600 -1,000 Descending FlightAware ADS-B
Thu 10:01:43 PM 23.0700 112.6180 90° East 283 326 10,000 -1,125 Descending FlightAware ADS-B
Thu 10:01:55 PM 23.0690 112.6350 94° East 283 326 9,700 -1,543 Descending FlightAware ADS-B
Thu 10:02:18 PM 23.0690 112.6660 90° East 277 319 9,100 -1,650 Descending FlightAware ADS-B
Thu 10:02:35 PM 23.0690 112.6900 90° East 276 318 8,600 -1,500 Descending FlightAware ADS-B
Thu 10:02:58 PM 23.0690 112.7230 90° East 283 326 8,100 -857 Descending FlightAware ADS-B
Thu 10:03:17 PM 23.0690 112.7510 90° East 286 329 8,000 -162 Descending FlightAware ADS-B
Thu 10:03:35 PM 23.0680 112.7770 92° East 283 326 8,000 -316 Level FlightAware ADS-B
Thu 10:03:55 PM 23.0680 112.8040 90° East 279 321 7,800 -900 Descending FlightAware ADS-B
Thu 10:04:15 PM 23.0680 112.8320 90° East 274 315 7,400 -1,000 Descending FlightAware ADS-B
Thu 10:04:43 PM 23.0680 112.8690 90° East 257 296 7,000 -1,038 Descending FlightAware ADS-B
Thu 10:05:07 PM 23.0680 112.9010 90° East 257 296 6,500 -1,091 Descending FlightAware ADS-B
Thu 10:05:27 PM 23.0680 112.9270 90° East 258 297 6,200 -947 Descending FlightAware ADS-B
Thu 10:05:45 PM 23.0680 112.9490 90° East 258 297 5,900 -900 Descending FlightAware ADS-B
Thu 10:06:07 PM 23.0670 112.9770 92° East 255 293 5,600 -563 Descending FlightAware ADS-B
Thu 10:06:49 PM 23.0670 113.0260 90° East 247 284 5,300 -677 Descending FlightAware ADS-B
Thu 10:07:09 PM 23.0670 113.0520 90° East 227 261 4,900 -1,143 Descending FlightAware ADS-B
Thu 10:07:31 PM 23.0660 113.0770 92° East 223 257 4,500 -960 Descending FlightAware ADS-B
Thu 10:07:59 PM 23.0700 113.1070 82° East 208 239 4,100 -833 Descending FlightAware ADS-B
Thu 10:08:07 PM 23.0750 113.1130 48° Northeast 205 236 4,000 -828 Descending FlightAware ADS-B
Thu 10:08:28 PM 23.0880 113.1280 47° Northeast 203 234 3,700 -900 Descending FlightAware ADS-B
Thu 10:08:47 PM 23.1010 113.1430 47° Northeast 203 234 3,400 -698 Descending FlightAware ADS-B
Thu 10:09:11 PM 23.1160 113.1600 46° Northeast 198 228 3,200 -273 Descending FlightAware ADS-B
Thu 10:09:31 PM 23.1290 113.1750 47° Northeast 199 229 3,200 -150 Level FlightAware ADS-B
Thu 10:09:51 PM 23.1420 113.1900 47° Northeast 200 230 3,100 -162 Descending FlightAware ADS-B
Thu 10:10:08 PM 23.1520 113.2020 48° Northeast 193 222 3,100 167 Level FlightAware ADS-B
Thu 10:10:27 PM 23.1630 113.2150 47° Northeast 184 212 3,200 154 Climbing FlightAware ADS-B
Thu 10:10:47 PM 23.1770 113.2270 38° Northeast 182 209 3,200  Level FlightAware ADS-B
Thu 10:10:57 PM 23.1840 113.2310 28° Northeast 181 208 3,200  Level FlightAware ADS-B
Thu 10:11:09 PM 23.1940 113.2340 15° North 181 208 3,200  Level FlightAware ADS-B
Thu 10:11:31 PM 23.2110 113.2390 15° North 176 203 3,200 -286 Level FlightAware ADS-B
Thu 10:11:51 PM 23.2270 113.2430 13° North 172 198 3,000 -615 Descending FlightAware ADS-B
Thu 10:12:10 PM 23.2410 113.2470 15° North 172 198 2,800 -818 Descending FlightAware ADS-B
Thu 10:12:35 PM 23.2610 113.2520 13° North 157 181 2,400 -933 Descending FlightAware ADS-B
Thu 10:12:55 PM 23.2740 113.2560 16° North 139 160 2,100 -750 Descending FlightAware ADS-B
Thu 10:13:15 PM 23.2860 113.2590 13° North 124 143 1,900 -615 Descending FlightAware ADS-B
Thu 10:13:34 PM 23.2960 113.2620 15° North 121 139 1,700 -514 Descending FlightAware ADS-B
Thu 10:13:50 PM 23.3050 113.2640 12° North 122 140 1,600 -649 Descending FlightAware ADS-B
Thu 10:14:11 PM 23.3160 113.2670 14° North 123 142 1,300 -327 Descending FlightAware ADS-B
Thu 10:14:45 PM 23.3330 113.2710 12° North 122 140 1,300  Level FlightAware ADS-B
Thu 10:17:00 PM 23.3924 113.2988 23° Northeast  Level Estimated

Login

Don't have an account? Register now (free) for customized features, flight alerts, and more!